createdAt,value
2023-02-06T00:00:41.624Z,102663.34
2023-02-06T00:03:09.510Z,102673.38
2023-02-06T00:05:37.649Z,102669.91
2023-02-06T00:08:07.266Z,102683.75
2023-02-06T00:10:35.148Z,102679.28
2023-02-06T00:13:03.080Z,102678.44
2023-02-06T00:15:31.092Z,102674.59
2023-02-06T00:17:59.028Z,102669.28
2023-02-06T00:20:26.856Z,102662.97
2023-02-06T00:22:54.829Z,102662.97
2023-02-06T00:25:22.674Z,102654.94
2023-02-06T00:27:50.636Z,102658.53
2023-02-06T00:30:18.587Z,102663.34
2023-02-06T00:32:46.468Z,102671.50
2023-02-06T00:35:14.359Z,102657.16
2023-02-06T00:37:42.268Z,102661.75
2023-02-06T00:40:10.141Z,102657.41
2023-02-06T00:42:37.984Z,102655.66
2023-02-06T00:45:05.880Z,102648.50
2023-02-06T00:47:35.069Z,102654.91
2023-02-06T00:50:02.895Z,102663.94
2023-02-06T00:52:30.862Z,102673.94
2023-02-06T00:54:58.808Z,102684.81
2023-02-06T00:57:26.659Z,102677.66
2023-02-06T00:59:54.936Z,102684.09
2023-02-06T01:02:22.809Z,102692.34
2023-02-06T01:04:50.713Z,102699.75
2023-02-06T01:07:18.641Z,102700.88
2023-02-06T01:09:46.508Z,102710.78
2023-02-06T01:12:14.397Z,102716.31
2023-02-06T01:14:42.279Z,102705.44
2023-02-06T01:17:10.662Z,102701.00
2023-02-06T01:19:38.596Z,102692.19
2023-02-06T01:22:06.439Z,102692.34
2023-02-06T01:24:34.284Z,102694.19
2023-02-06T01:27:02.235Z,102685.13
2023-02-06T01:29:30.128Z,102696.03
2023-02-06T01:31:58.021Z,102698.00
2023-02-06T01:34:25.965Z,102690.81
2023-02-06T01:36:53.957Z,102693.69
2023-02-06T01:39:21.819Z,102687.47
2023-02-06T01:41:51.091Z,102682.03
2023-02-06T01:44:18.913Z,102683.16
2023-02-06T01:46:46.969Z,102678.69
2023-02-06T01:49:14.849Z,102678.69
2023-02-06T01:51:42.723Z,102671.63
2023-02-06T01:54:10.667Z,102676.09
2023-02-06T01:56:38.577Z,102661.72
2023-02-06T01:59:06.626Z,102657.38
2023-02-06T02:01:34.562Z,102659.34
2023-02-06T02:04:02.444Z,102661.34
2023-02-06T02:06:30.398Z,102653.28
2023-02-06T02:08:58.582Z,102645.88
2023-02-06T02:11:26.445Z,102661.34
2023-02-06T02:13:54.329Z,102660.59
2023-02-06T02:16:22.196Z,102658.81
2023-02-06T02:18:50.200Z,102657.00
2023-02-06T02:21:18.117Z,102645.38
2023-02-06T02:23:46.050Z,102644.63
2023-02-06T02:26:13.912Z,102649.19
2023-02-06T02:28:41.939Z,102641.03
2023-02-06T02:31:09.799Z,102633.00
2023-02-06T02:33:37.712Z,102641.16
2023-02-06T02:36:05.609Z,102635.84
2023-02-06T02:38:33.477Z,102644.72
2023-02-06T02:41:01.404Z,102634.84
2023-02-06T02:43:29.233Z,102629.41
2023-02-06T02:45:58.400Z,102627.69
2023-02-06T02:48:26.278Z,102616.94
2023-02-06T02:50:54.117Z,102621.38
2023-02-06T02:53:22.033Z,102619.66
2023-02-06T02:55:49.900Z,102613.34
2023-02-06T02:58:18.101Z,102614.22
2023-02-06T03:00:46.015Z,102612.50
2023-02-06T03:03:13.905Z,102606.16
2023-02-06T03:05:41.785Z,102603.59
2023-02-06T03:08:09.603Z,102608.16
2023-02-06T03:10:37.526Z,102610.88
2023-02-06T03:13:05.725Z,102624.56
2023-02-06T03:15:33.760Z,102621.84
2023-02-06T03:18:01.798Z,102618.28
2023-02-06T03:20:29.694Z,102611.22
2023-02-06T03:22:57.663Z,102612.22
2023-02-06T03:25:25.555Z,102603.19
2023-02-06T03:27:53.461Z,102614.03
2023-02-06T03:30:21.612Z,102613.31
2023-02-06T03:32:49.485Z,102604.41
2023-02-06T03:35:17.340Z,102601.69
2023-02-06T03:37:45.252Z,102595.50
2023-02-06T03:40:13.126Z,102597.38
2023-02-06T03:42:41.004Z,102596.50
2023-02-06T03:45:08.949Z,102599.31
2023-02-06T03:47:37.090Z,102601.03
2023-02-06T03:50:04.966Z,102608.47
2023-02-06T03:52:32.848Z,102604.13
2023-02-06T03:55:02.417Z,102604.34
2023-02-06T03:57:30.402Z,102615.22
2023-02-06T03:59:58.205Z,102619.69
2023-02-06T04:02:26.114Z,102622.50
2023-02-06T04:04:54.155Z,102625.22
2023-02-06T04:07:22.072Z,102621.53
2023-02-06T04:09:49.994Z,102618.69
2023-02-06T04:12:17.878Z,102611.78
2023-02-06T04:14:45.777Z,102608.06
2023-02-06T04:17:15.610Z,102610.00
2023-02-06T04:19:46.673Z,102610.88
2023-02-06T04:22:14.560Z,102606.34
2023-02-06T04:24:42.361Z,102606.53
2023-02-06T04:27:10.150Z,102600.25
2023-02-06T04:29:37.923Z,102593.09
2023-02-06T04:32:05.611Z,102590.25
2023-02-06T04:34:33.407Z,102603.09
2023-02-06T04:37:01.164Z,102611.34
2023-02-06T04:39:28.901Z,102613.84
2023-02-06T04:41:56.638Z,102613.84
2023-02-06T04:44:24.351Z,102617.41
2023-02-06T04:46:52.105Z,102623.72
2023-02-06T04:49:19.812Z,102616.53
2023-02-06T04:51:47.537Z,102615.44
2023-02-06T04:54:15.233Z,102608.28
2023-02-06T04:56:42.949Z,102604.81
2023-02-06T04:59:10.669Z,102611.97
2023-02-06T05:01:38.447Z,102604.81
2023-02-06T05:04:06.212Z,102600.50
2023-02-06T05:06:33.901Z,102595.91
2023-02-06T05:09:01.632Z,102585.06
2023-02-06T05:11:29.361Z,102584.94
2023-02-06T05:13:57.064Z,102582.34
2023-02-06T05:16:24.757Z,102579.63
2023-02-06T05:18:52.641Z,102588.00
2023-02-06T05:21:20.427Z,102591.59
2023-02-06T05:23:49.440Z,102592.56
2023-02-06T05:26:17.261Z,102588.00
2023-02-06T05:28:45.007Z,102585.28
2023-02-06T05:31:18.358Z,102582.72
2023-02-06T05:33:46.233Z,102585.44
2023-02-06T05:36:23.106Z,102585.53
2023-02-06T05:38:50.917Z,102575.75
2023-02-06T05:41:19.606Z,102579.34
2023-02-06T05:43:47.355Z,102580.34
2023-02-06T05:46:15.088Z,102590.34
2023-02-06T05:48:44.636Z,102594.78
2023-02-06T05:51:12.348Z,102586.88
2023-02-06T05:53:40.072Z,102581.53
2023-02-06T05:56:07.802Z,102589.69
2023-02-06T05:58:35.520Z,102589.69
2023-02-06T06:01:03.518Z,102585.25
2023-02-06T06:03:33.395Z,102588.94
2023-02-06T06:06:01.309Z,102586.22
2023-02-06T06:08:29.045Z,102586.34
2023-02-06T06:10:56.739Z,102585.59
2023-02-06T06:13:24.458Z,102583.72
2023-02-06T06:15:52.571Z,102589.28
2023-02-06T06:18:20.369Z,102574.81
2023-02-06T06:20:48.141Z,102574.97
2023-02-06T06:23:15.862Z,102582.34
2023-02-06T06:25:43.866Z,102590.59
2023-02-06T06:28:11.661Z,102585.16
2023-02-06T06:30:39.490Z,102586.06
2023-02-06T06:33:07.201Z,102591.59
2023-02-06T06:35:35.357Z,102590.59
2023-02-06T06:38:03.287Z,102587.78
2023-02-06T06:40:31.054Z,102602.88
2023-02-06T06:42:58.804Z,102601.00
2023-02-06T06:45:26.521Z,102609.41
2023-02-06T06:47:54.255Z,102610.13
2023-02-06T06:50:22.016Z,102604.69
2023-02-06T06:52:49.723Z,102611.13
2023-02-06T06:55:19.453Z,102617.53
2023-02-06T06:57:47.237Z,102616.78
2023-02-06T07:00:14.933Z,102619.50
2023-02-06T07:02:42.690Z,102615.03
2023-02-06T07:05:10.468Z,102623.16
2023-02-06T07:07:39.470Z,102623.16
2023-02-06T07:10:07.271Z,102620.25
2023-02-06T07:12:35.077Z,102619.88
2023-02-06T07:15:02.853Z,102623.25
2023-02-06T07:17:30.553Z,102623.13
2023-02-06T07:19:59.368Z,102629.56
2023-02-06T07:22:27.080Z,102624.88
2023-02-06T07:24:54.814Z,102625.13
2023-02-06T07:27:22.623Z,102620.31
2023-02-06T07:29:50.405Z,102618.44
2023-02-06T07:32:18.168Z,102610.31
2023-02-06T07:34:45.926Z,102610.22
2023-02-06T07:37:13.672Z,102603.91
2023-02-06T07:39:41.440Z,102598.59
2023-02-06T07:42:09.266Z,102595.13
2023-02-06T07:44:37.013Z,102594.16
2023-02-06T07:47:05.776Z,102597.72
2023-02-06T07:49:33.563Z,102595.13
2023-02-06T07:52:01.327Z,102589.69
2023-02-06T07:54:29.112Z,102594.34
2023-02-06T07:56:56.861Z,102589.91
2023-02-06T07:59:24.897Z,102595.25
2023-02-06T08:01:53.136Z,102585.25
2023-02-06T08:04:21.543Z,102582.53
2023-02-06T08:06:49.450Z,102575.34
2023-02-06T08:09:18.484Z,102578.19
2023-02-06T08:11:47.028Z,102571.91
2023-02-06T08:14:15.256Z,102588.06
2023-02-06T08:16:43.724Z,102586.34
2023-02-06T08:19:12.621Z,102583.72
2023-02-06T08:21:40.862Z,102585.59
2023-02-06T08:24:09.589Z,102580.25
2023-02-06T08:26:37.612Z,102580.50
2023-02-06T08:29:05.643Z,102588.63
2023-02-06T08:31:33.796Z,102588.63
2023-02-06T08:34:01.706Z,102592.34
2023-02-06T08:36:31.617Z,102586.91
2023-02-06T08:38:59.948Z,102583.44
2023-02-06T08:41:27.868Z,102570.88
2023-02-06T08:43:55.784Z,102583.44
2023-02-06T08:46:23.772Z,102577.38
2023-02-06T08:48:51.941Z,102571.97
2023-02-06T08:51:21.146Z,102576.53
2023-02-06T08:53:49.020Z,102578.25
2023-02-06T08:56:17.021Z,102574.78
2023-02-06T08:58:44.972Z,102577.38
2023-02-06T09:01:13.800Z,102572.81
2023-02-06T09:03:41.869Z,102576.28
2023-02-06T09:06:10.601Z,102572.34
2023-02-06T09:08:38.695Z,102570.50
2023-02-06T09:11:06.773Z,102573.34
2023-02-06T09:13:34.753Z,102570.63
2023-02-06T09:16:02.721Z,102568.78
2023-02-06T09:18:33.866Z,102569.53
2023-02-06T09:21:01.761Z,102572.34
2023-02-06T09:23:29.693Z,102573.34
2023-02-06T09:25:57.566Z,102570.63
2023-02-06T09:28:25.603Z,102567.78
2023-02-06T09:30:53.666Z,102565.31
2023-02-06T09:33:21.663Z,102565.97
2023-02-06T09:35:49.600Z,102574.81
2023-02-06T09:38:17.528Z,102573.97
2023-02-06T09:40:45.620Z,102566.81
2023-02-06T09:43:13.609Z,102566.91
2023-02-06T09:45:41.576Z,102556.91
2023-02-06T09:48:09.581Z,102552.38
2023-02-06T09:50:37.650Z,102554.97
2023-02-06T09:53:05.683Z,102561.38
2023-02-06T09:55:33.656Z,102570.50
2023-02-06T09:58:01.794Z,102570.50
2023-02-06T10:00:29.746Z,102571.38
2023-02-06T10:02:57.696Z,102574.97
2023-02-06T10:05:25.597Z,102580.50
2023-02-06T10:07:53.531Z,102576.91
2023-02-06T10:10:21.580Z,102566.06
2023-02-06T10:12:49.469Z,102559.88
2023-02-06T10:15:17.391Z,102560.63
2023-02-06T10:17:45.289Z,102566.28
2023-02-06T10:20:13.258Z,102565.31
2023-02-06T10:22:41.220Z,102570.88
2023-02-06T10:25:09.136Z,102560.25
2023-02-06T10:27:37.052Z,102558.50
2023-02-06T10:30:04.950Z,102554.81
2023-02-06T10:32:35.662Z,102549.50
2023-02-06T10:35:03.578Z,102555.00
2023-02-06T10:37:31.462Z,102549.81
2023-02-06T10:39:59.430Z,102546.16
2023-02-06T10:42:27.495Z,102545.25
2023-02-06T10:44:58.230Z,102546.25
2023-02-06T10:47:31.556Z,102544.53
2023-02-06T10:50:01.397Z,102542.78
2023-02-06T10:52:29.302Z,102545.63
2023-02-06T10:54:57.166Z,102548.44
2023-02-06T10:57:25.573Z,102550.16
2023-02-06T10:59:54.013Z,102557.44
2023-02-06T11:02:21.995Z,102548.50
2023-02-06T11:04:50.389Z,102551.22
2023-02-06T11:07:18.283Z,102543.97
2023-02-06T11:09:46.165Z,102534.94
2023-02-06T11:12:14.094Z,102538.53
2023-02-06T11:14:42.075Z,102535.06
2023-02-06T11:17:09.930Z,102534.56
2023-02-06T11:19:38.120Z,102517.28
2023-02-06T11:22:07.362Z,102523.56
2023-02-06T11:24:35.271Z,102521.59
2023-02-06T11:27:03.157Z,102516.06
2023-02-06T11:29:31.914Z,102514.97
2023-02-06T11:31:59.850Z,102509.56
2023-02-06T11:34:27.732Z,102508.59
2023-02-06T11:36:55.671Z,102514.13
2023-02-06T11:39:23.612Z,102521.38
2023-02-06T11:41:51.576Z,102514.97
2023-02-06T11:44:19.689Z,102509.56
2023-02-06T11:46:47.660Z,102503.25
2023-02-06T11:49:15.559Z,102508.59
2023-02-06T11:51:43.540Z,102514.88
2023-02-06T11:54:11.437Z,102512.16
2023-02-06T11:56:39.371Z,102504.13
2023-02-06T11:59:07.381Z,102507.78
2023-02-06T12:01:36.835Z,102502.31
2023-02-06T12:04:04.765Z,102506.72
2023-02-06T12:06:32.664Z,102513.78
2023-02-06T12:09:00.631Z,102502.94
2023-02-06T12:11:28.488Z,102506.63
2023-02-06T12:13:56.374Z,102501.09
2023-02-06T12:16:24.299Z,102508.34
2023-02-06T12:18:52.331Z,102516.72
2023-02-06T12:21:20.213Z,102523.13
2023-02-06T12:23:48.893Z,102525.84
2023-02-06T12:26:16.808Z,102522.25
2023-02-06T12:28:44.804Z,102521.50
2023-02-06T12:31:12.712Z,102525.94
2023-02-06T12:33:40.713Z,102512.50
2023-02-06T12:36:12.402Z,102516.19
2023-02-06T12:38:40.269Z,102521.59
2023-02-06T12:41:08.187Z,102516.06
2023-02-06T12:43:36.086Z,102515.94
2023-02-06T12:46:04.496Z,102519.75
2023-02-06T12:48:32.453Z,102512.59
2023-02-06T12:51:00.403Z,102509.03
2023-02-06T12:53:28.311Z,102511.97
2023-02-06T12:55:56.267Z,102512.84
2023-02-06T12:58:24.236Z,102514.69
2023-02-06T13:00:52.186Z,102511.97
2023-02-06T13:03:20.054Z,102503.84
2023-02-06T13:05:48.144Z,102512.94
2023-02-06T13:08:16.062Z,102521.09
2023-02-06T13:10:44.783Z,102519.34
2023-02-06T13:13:12.666Z,102508.50
2023-02-06T13:15:40.686Z,102510.47
2023-02-06T13:18:09.360Z,102515.88
2023-02-06T13:20:37.187Z,102515.03
2023-02-06T13:23:05.087Z,102519.59
2023-02-06T13:25:33.046Z,102523.41
2023-02-06T13:28:01.290Z,102525.25
2023-02-06T13:30:29.529Z,102537.06
2023-02-06T13:32:57.626Z,102527.06
2023-02-06T13:35:25.665Z,102529.94
2023-02-06T13:37:53.652Z,102528.16
2023-02-06T13:40:22.002Z,102521.66
2023-02-06T13:42:50.030Z,102525.97
2023-02-06T13:45:17.971Z,102519.47
2023-02-06T13:47:46.075Z,102528.25
2023-02-06T13:50:13.985Z,102540.31
2023-02-06T13:52:41.865Z,102537.59
2023-02-06T13:55:09.772Z,102534.41
2023-02-06T13:57:37.647Z,102533.78
2023-02-06T14:00:05.894Z,102536.59
2023-02-06T14:02:33.876Z,102537.50
2023-02-06T14:05:01.766Z,102544.66
2023-02-06T14:07:29.690Z,102550.16
2023-02-06T14:09:58.165Z,102547.47
2023-02-06T14:12:35.651Z,102556.34
2023-02-06T14:15:03.551Z,102560.81
2023-02-06T14:17:31.413Z,102568.22
2023-02-06T14:19:59.359Z,102568.31
2023-02-06T14:22:27.231Z,102567.22
2023-02-06T14:24:55.227Z,102572.88
2023-02-06T14:27:23.554Z,102574.59
2023-02-06T14:29:51.904Z,102575.34
2023-02-06T14:32:19.935Z,102581.78
2023-02-06T14:34:47.862Z,102574.59
2023-02-06T14:37:15.857Z,102576.44
2023-02-06T14:39:43.737Z,102579.28
2023-02-06T14:42:11.638Z,102576.59
2023-02-06T14:44:39.581Z,102583.97
2023-02-06T14:47:07.492Z,102578.88
2023-02-06T14:49:35.559Z,102585.06
2023-02-06T14:52:03.539Z,102597.44
2023-02-06T14:54:31.631Z,102598.22
2023-02-06T14:56:59.600Z,102595.81
2023-02-06T14:59:27.514Z,102603.72
2023-02-06T15:01:55.499Z,102603.75
2023-02-06T15:04:23.399Z,102611.78
2023-02-06T15:06:51.379Z,102620.22
2023-02-06T15:09:19.411Z,102620.88
2023-02-06T15:11:47.332Z,102612.88
2023-02-06T15:14:15.182Z,102616.72
2023-02-06T15:16:43.189Z,102622.66
2023-02-06T15:19:11.136Z,102635.28
2023-02-06T15:21:39.170Z,102638.44
2023-02-06T15:24:07.032Z,102644.72
2023-02-06T15:26:35.614Z,102643.31
2023-02-06T15:29:03.693Z,102651.06
2023-02-06T15:31:31.595Z,102665.91
2023-02-06T15:33:59.555Z,102668.63
2023-02-06T15:36:27.402Z,102669.81
2023-02-06T15:38:55.367Z,102667.88
2023-02-06T15:41:23.239Z,102675.47
2023-02-06T15:43:51.157Z,102677.66
2023-02-06T15:46:19.110Z,102684.75
2023-02-06T15:48:47.006Z,102676.84
2023-02-06T15:51:14.836Z,102678.97
2023-02-06T15:53:42.844Z,102673.94
2023-02-06T15:56:10.768Z,102682.66
2023-02-06T15:58:38.825Z,102675.22
2023-02-06T16:01:06.946Z,102678.84
2023-02-06T16:03:34.887Z,102680.66
2023-02-06T16:06:02.794Z,102673.50
2023-02-06T16:08:31.027Z,102667.53
2023-02-06T16:10:58.928Z,102675.59
2023-02-06T16:13:26.837Z,102685.25
2023-02-06T16:15:54.714Z,102698.78
2023-02-06T16:18:23.114Z,102694.41
2023-02-06T16:20:50.939Z,102695.78
2023-02-06T16:23:18.894Z,102692.59
2023-02-06T16:25:46.708Z,102695.47
2023-02-06T16:28:14.543Z,102712.84
2023-02-06T16:30:42.331Z,102723.72
2023-02-06T16:33:10.144Z,102720.03
2023-02-06T16:35:37.943Z,102712.16
2023-02-06T16:38:05.705Z,102719.81
2023-02-06T16:40:33.505Z,102712.09
2023-02-06T16:43:01.338Z,102716.88
2023-02-06T16:45:29.142Z,102728.72
2023-02-06T16:47:56.931Z,102737.47
2023-02-06T16:50:24.736Z,102745.09
2023-02-06T16:52:52.510Z,102745.19
2023-02-06T16:55:22.226Z,102742.63
2023-02-06T16:57:51.023Z,102730.03
2023-02-06T17:00:18.915Z,102738.63
2023-02-06T17:02:46.740Z,102745.75
2023-02-06T17:05:14.463Z,102752.81
2023-02-06T17:07:42.211Z,102753.34
2023-02-06T17:10:09.974Z,102760.94
2023-02-06T17:12:37.726Z,102756.44
2023-02-06T17:15:05.532Z,102749.88
2023-02-06T17:17:33.276Z,102753.81
2023-02-06T17:20:01.038Z,102759.16
2023-02-06T17:22:28.842Z,102764.53
2023-02-06T17:24:56.622Z,102773.66
2023-02-06T17:27:25.264Z,102772.56
2023-02-06T17:29:53.825Z,102772.09
2023-02-06T17:32:22.459Z,102774.38
2023-02-06T17:35:07.780Z,102772.84
2023-02-06T17:37:47.796Z,102771.56
2023-02-06T17:40:28.485Z,102776.91
2023-02-06T17:42:56.422Z,102778.47
2023-02-06T17:45:24.273Z,102773.63
2023-02-06T17:47:52.090Z,102780.19
2023-02-06T17:50:22.744Z,102775.03
2023-02-06T17:52:52.763Z,102782.09
2023-02-06T17:55:20.589Z,102779.25
2023-02-06T17:57:48.701Z,102780.56
2023-02-06T18:00:19.413Z,102787.59
2023-02-06T18:02:47.666Z,102793.22
2023-02-06T18:05:15.508Z,102792.94
2023-02-06T18:07:43.346Z,102790.28
2023-02-06T18:10:11.149Z,102781.50
2023-02-06T18:12:39.015Z,102780.19
2023-02-06T18:15:06.806Z,102779.84
2023-02-06T18:17:34.636Z,102779.53
2023-02-06T18:20:02.555Z,102791.25
2023-02-06T18:22:30.399Z,102784.88
2023-02-06T18:24:59.448Z,102784.50
2023-02-06T18:27:32.503Z,102791.44
2023-02-06T18:30:00.283Z,102798.31
2023-02-06T18:32:28.034Z,102791.28
2023-02-06T18:34:55.874Z,102797.09
2023-02-06T18:37:23.649Z,102787.63
2023-02-06T18:39:51.451Z,102781.94
2023-02-06T18:42:36.869Z,102778.13
2023-02-06T18:45:04.663Z,102791.47
2023-02-06T18:47:32.485Z,102783.72
2023-02-06T18:50:00.318Z,102785.75
2023-02-06T18:52:28.109Z,102782.88
2023-02-06T18:54:55.917Z,102764.59
2023-02-06T18:57:23.858Z,102772.97
2023-02-06T18:59:51.572Z,102790.69
2023-02-06T19:02:19.357Z,102785.53
2023-02-06T19:04:47.115Z,102791.91
2023-02-06T19:07:16.314Z,102794.28
2023-02-06T19:09:44.077Z,102791.38
2023-02-06T19:12:11.827Z,102790.63
2023-02-06T19:14:40.239Z,102788.34
2023-02-06T19:17:07.996Z,102795.34
2023-02-06T19:19:35.806Z,102796.09
2023-02-06T19:22:03.548Z,102802.44
2023-02-06T19:24:31.731Z,102809.19
2023-02-06T19:26:59.512Z,102798.34
2023-02-06T19:29:35.664Z,102811.78
2023-02-06T19:32:04.143Z,102810.34
2023-02-06T19:34:34.626Z,102818.28
2023-02-06T19:37:02.728Z,102815.56
2023-02-06T19:39:34.022Z,102811.31
2023-02-06T19:42:01.887Z,102814.00
2023-02-06T19:44:29.669Z,102813.56
2023-02-06T19:46:57.577Z,102791.72
2023-02-06T19:49:25.441Z,102795.16
2023-02-06T19:51:53.424Z,102822.47
2023-02-06T19:54:21.184Z,102820.00
2023-02-06T19:56:49.031Z,102815.56
2023-02-06T19:59:19.007Z,102825.25
2023-02-06T20:01:46.840Z,102824.63
2023-02-06T20:04:14.606Z,102828.41
2023-02-06T20:06:43.981Z,102807.84
2023-02-06T20:09:11.851Z,102812.13
2023-02-06T20:11:39.635Z,102824.84
2023-02-06T20:14:07.391Z,102830.72
2023-02-06T20:16:35.230Z,102828.19
2023-02-06T20:19:03.023Z,102848.41
2023-02-06T20:21:31.288Z,102855.00
2023-02-06T20:23:59.177Z,102849.03
2023-02-06T20:26:26.897Z,102844.97
2023-02-06T20:28:54.640Z,102834.09
2023-02-06T20:31:22.500Z,102842.72
2023-02-06T20:33:50.321Z,102847.41
2023-02-06T20:36:18.059Z,102861.84
2023-02-06T20:38:45.822Z,102867.25
2023-02-06T20:41:13.609Z,102873.16
2023-02-06T20:43:41.334Z,102887.16
2023-02-06T20:46:09.125Z,102881.53
2023-02-06T20:48:36.978Z,102868.53
2023-02-06T20:51:04.709Z,102862.66
2023-02-06T20:53:32.487Z,102867.91
2023-02-06T20:56:00.257Z,102871.84
2023-02-06T20:58:28.360Z,102879.97
2023-02-06T21:00:56.238Z,102882.56
2023-02-06T21:03:24.041Z,102885.78
2023-02-06T21:05:51.880Z,102882.84
2023-02-06T21:08:19.787Z,102873.69
2023-02-06T21:10:47.509Z,102872.00
2023-02-06T21:13:15.254Z,102870.47
2023-02-06T21:15:43.176Z,102879.13
2023-02-06T21:18:10.958Z,102869.47
2023-02-06T21:20:39.003Z,102873.50
2023-02-06T21:23:06.877Z,102874.66
2023-02-06T21:25:34.655Z,102869.59
2023-02-06T21:28:02.506Z,102887.38
2023-02-06T21:30:30.310Z,102892.53
2023-02-06T21:32:58.105Z,102886.16
2023-02-06T21:35:28.694Z,102880.94
2023-02-06T21:37:56.441Z,102881.91
2023-02-06T21:40:24.188Z,102873.66
2023-02-06T21:42:51.987Z,102866.13
2023-02-06T21:45:19.756Z,102869.22
2023-02-06T21:47:47.526Z,102867.44
2023-02-06T21:50:15.272Z,102872.84
2023-02-06T21:52:43.028Z,102869.91
2023-02-06T21:55:11.701Z,102859.78
2023-02-06T21:57:39.433Z,102871.34
2023-02-06T22:00:07.199Z,102877.75
2023-02-06T22:02:35.015Z,102891.19
2023-02-06T22:05:02.729Z,102900.03
2023-02-06T22:07:30.468Z,102901.50
2023-02-06T22:09:58.239Z,102903.91
2023-02-06T22:12:25.985Z,102906.69
2023-02-06T22:14:53.720Z,102900.97
2023-02-06T22:17:21.518Z,102918.59
2023-02-06T22:19:50.186Z,102920.47
2023-02-06T22:22:18.379Z,102910.94
2023-02-06T22:24:46.310Z,102895.31
2023-02-06T22:27:14.218Z,102896.22
2023-02-06T22:29:42.256Z,102905.03
2023-02-06T22:32:10.517Z,102900.78
2023-02-06T22:34:38.442Z,102908.88
2023-02-06T22:37:06.316Z,102902.00
2023-02-06T22:39:34.205Z,102904.72
2023-02-06T22:42:02.250Z,102910.44
2023-02-06T22:44:30.188Z,102923.31
2023-02-06T22:46:58.746Z,102928.41
2023-02-06T22:49:26.601Z,102934.47
2023-02-06T22:51:54.518Z,102938.28
2023-02-06T22:54:22.744Z,102931.22
2023-02-06T22:56:50.620Z,102937.19
2023-02-06T22:59:18.572Z,102938.03
2023-02-06T23:01:46.571Z,102959.41
2023-02-06T23:04:15.425Z,102965.97
2023-02-06T23:06:43.404Z,102960.78
2023-02-06T23:09:11.361Z,102978.22
2023-02-06T23:11:39.251Z,102957.41
2023-02-06T23:14:07.116Z,102958.03
2023-02-06T23:16:35.053Z,102955.44
2023-02-06T23:19:04.659Z,102956.03
2023-02-06T23:21:32.604Z,102959.22
2023-02-06T23:24:00.968Z,102951.06
2023-02-06T23:26:28.909Z,102961.72
2023-02-06T23:28:56.893Z,102962.31
2023-02-06T23:31:25.250Z,102956.25
2023-02-06T23:33:53.158Z,102944.50
2023-02-06T23:36:21.067Z,102952.16
2023-02-06T23:38:49.110Z,102952.00
2023-02-06T23:41:16.984Z,102949.09
2023-02-06T23:43:45.024Z,102941.13
2023-02-06T23:46:13.059Z,102941.13
2023-02-06T23:48:41.023Z,102940.41
2023-02-06T23:51:09.302Z,102932.44
2023-02-06T23:53:37.195Z,102932.44
2023-02-06T23:56:05.113Z,102935.41
2023-02-06T23:58:33.014Z,102940.09
